createdAt,value
2023-01-02T00:01:32.124Z,2.73
2023-01-02T00:03:59.967Z,2.72
2023-01-02T00:06:27.972Z,2.71
2023-01-02T00:08:57.730Z,2.71
2023-01-02T00:11:25.677Z,2.71
2023-01-02T00:13:53.511Z,2.69
2023-01-02T00:16:21.640Z,2.69
2023-01-02T00:18:49.443Z,2.69
2023-01-02T00:21:17.817Z,2.70
2023-01-02T00:23:45.838Z,2.71
2023-01-02T00:26:14.328Z,2.72
2023-01-02T00:28:42.081Z,2.75
2023-01-02T00:31:13.685Z,2.76
2023-01-02T00:33:41.697Z,2.80
2023-01-02T00:36:12.863Z,2.80
2023-01-02T00:38:41.327Z,2.81
2023-01-02T00:41:09.637Z,2.84
2023-01-02T00:43:37.633Z,2.72
2023-01-02T00:46:11.248Z,2.84
2023-01-02T00:48:35.533Z,2.85
2023-01-02T00:51:03.513Z,2.84
2023-01-02T00:53:31.482Z,2.83
2023-01-02T00:55:58.879Z,2.83
2023-01-02T00:58:26.646Z,2.81
2023-01-02T01:00:54.427Z,2.80
2023-01-02T01:03:22.221Z,2.77
2023-01-02T01:05:50.222Z,2.78
2023-01-02T01:08:17.990Z,2.79
2023-01-02T01:10:45.654Z,2.79
2023-01-02T01:13:13.333Z,2.79
2023-01-02T01:15:41.657Z,2.77
2023-01-02T01:18:09.335Z,2.65
2023-01-02T01:20:40.138Z,2.74
2023-01-02T01:23:07.911Z,2.73
2023-01-02T01:25:37.436Z,2.71
2023-01-02T01:28:05.147Z,2.71
2023-01-02T01:30:33.008Z,2.69
2023-01-02T01:33:00.492Z,2.70
2023-01-02T01:35:28.129Z,2.70
2023-01-02T01:37:56.154Z,2.69
2023-01-02T01:40:23.917Z,2.67
2023-01-02T01:42:53.945Z,2.65
2023-01-02T01:45:21.336Z,2.64
2023-01-02T01:47:55.197Z,2.63
2023-01-02T01:50:32.089Z,2.63
2023-01-02T01:53:16.343Z,2.61
2023-01-02T01:55:55.780Z,2.60
2023-01-02T01:58:36.343Z,2.55
2023-01-02T02:01:04.497Z,2.53
2023-01-02T02:03:34.546Z,2.52
2023-01-02T02:06:04.412Z,2.49
2023-01-02T02:08:55.848Z,2.48
2023-01-02T02:11:23.783Z,2.47
2023-01-02T02:13:52.008Z,2.44
2023-01-02T02:16:25.268Z,2.41
2023-01-02T02:19:04.448Z,2.38
2023-01-02T02:22:10.861Z,2.37
2023-01-02T02:25:00.294Z,2.37
2023-01-02T02:27:57.514Z,2.33
2023-01-02T02:30:38.246Z,2.32
2023-01-02T02:33:16.056Z,2.31
2023-01-02T02:36:19.485Z,2.30
2023-01-02T02:39:27.696Z,2.27
2023-01-02T02:42:30.113Z,2.22
2023-01-02T02:45:05.994Z,2.21
2023-01-02T02:47:53.887Z,2.19
2023-01-02T02:50:32.577Z,2.20
2023-01-02T02:53:14.135Z,2.17
2023-01-02T02:55:52.717Z,2.14
2023-01-02T02:58:23.139Z,2.10
2023-01-02T03:00:51.095Z,2.06
2023-01-02T03:03:22.991Z,2.02
2023-01-02T03:06:20.731Z,1.98
2023-01-02T03:09:12.084Z,1.97
2023-01-02T03:12:03.120Z,1.94
2023-01-02T03:15:03.579Z,1.91
2023-01-02T03:17:51.729Z,1.87
2023-01-02T03:20:23.853Z,1.83
2023-01-02T03:22:57.037Z,1.80
2023-01-02T03:25:25.121Z,1.81
2023-01-02T03:27:57.607Z,1.80
2023-01-02T03:30:25.679Z,1.81
2023-01-02T03:33:00.418Z,1.80
2023-01-02T03:35:32.884Z,1.78
2023-01-02T03:38:05.346Z,1.78
2023-01-02T03:40:40.305Z,1.82
2023-01-02T03:43:18.388Z,1.84
2023-01-02T03:46:06.249Z,1.82
2023-01-02T03:48:43.770Z,1.80
2023-01-02T03:51:12.804Z,1.77
2023-01-02T03:53:40.848Z,1.75
2023-01-02T03:56:43.926Z,1.77
2023-01-02T03:59:38.465Z,1.74
2023-01-02T04:02:32.837Z,1.73
2023-01-02T04:05:24.213Z,1.73
2023-01-02T04:08:02.982Z,1.73
2023-01-02T04:10:33.753Z,1.71
2023-01-02T04:13:06.487Z,1.69
2023-01-02T04:15:36.696Z,1.67
2023-01-02T04:18:16.052Z,1.67
2023-01-02T04:20:49.393Z,1.67
2023-01-02T04:23:22.103Z,1.70
2023-01-02T04:26:01.228Z,1.71
2023-01-02T04:28:32.319Z,1.73
2023-01-02T04:31:11.434Z,1.74
2023-01-02T04:33:55.705Z,1.75
2023-01-02T04:36:24.097Z,1.74
2023-01-02T04:38:52.477Z,1.72
2023-01-02T04:41:26.846Z,1.67
2023-01-02T04:43:58.627Z,1.65
2023-01-02T04:46:28.712Z,1.64
2023-01-02T04:48:57.152Z,1.61
2023-01-02T04:51:25.376Z,1.56
2023-01-02T04:53:55.229Z,1.52
2023-01-02T04:56:23.310Z,1.48
2023-01-02T04:58:51.206Z,1.43
2023-01-02T05:01:21.123Z,1.45
2023-01-02T05:03:52.225Z,1.46
2023-01-02T05:06:20.176Z,1.48
2023-01-02T05:08:48.074Z,1.47
2023-01-02T05:11:20.074Z,1.51
2023-01-02T05:13:48.088Z,1.54
2023-01-02T05:16:15.864Z,1.61
2023-01-02T05:18:43.525Z,1.71
2023-01-02T05:21:31.818Z,1.77
2023-01-02T05:24:02.991Z,1.80
2023-01-02T05:26:32.470Z,1.80
2023-01-02T05:29:01.083Z,1.80
2023-01-02T05:31:29.383Z,1.81
2023-01-02T05:33:59.007Z,1.81
2023-01-02T05:36:27.697Z,1.82
2023-01-02T05:38:55.748Z,1.80
2023-01-02T05:41:25.443Z,1.81
2023-01-02T05:43:55.149Z,1.82
2023-01-02T05:46:23.161Z,1.80
2023-01-02T05:48:51.209Z,1.76
2023-01-02T05:51:20.015Z,1.77
2023-01-02T05:53:47.878Z,1.77
2023-01-02T05:56:18.173Z,1.75
2023-01-02T05:58:48.780Z,1.73
2023-01-02T06:01:20.675Z,1.71
2023-01-02T06:03:52.628Z,1.70
2023-01-02T06:06:23.508Z,1.67
2023-01-02T06:08:51.333Z,1.66
2023-01-02T06:11:19.240Z,1.63
2023-01-02T06:13:47.074Z,1.63
2023-01-02T06:16:15.040Z,1.62
2023-01-02T06:18:42.856Z,1.64
2023-01-02T06:21:15.170Z,1.65
2023-01-02T06:23:43.611Z,1.79
2023-01-02T06:26:15.807Z,2.01
2023-01-02T06:28:45.112Z,2.18
2023-01-02T06:31:15.378Z,2.31
2023-01-02T06:33:43.499Z,2.47
2023-01-02T06:36:18.741Z,2.52
2023-01-02T06:38:46.878Z,2.55
2023-01-02T06:41:15.627Z,2.61
2023-01-02T06:43:47.003Z,2.75
2023-01-02T06:46:18.725Z,3.12
2023-01-02T06:48:46.945Z,3.56
2023-01-02T06:51:18.376Z,3.90
2023-01-02T06:53:46.057Z,4.19
2023-01-02T06:56:17.315Z,4.37
2023-01-02T06:58:45.448Z,4.54
2023-01-02T07:01:17.811Z,4.60
2023-01-02T07:03:46.116Z,4.57
2023-01-02T07:06:18.580Z,4.55
2023-01-02T07:08:47.536Z,4.58
2023-01-02T07:11:22.223Z,4.62
2023-01-02T07:13:53.051Z,4.68
2023-01-02T07:16:22.885Z,4.84
2023-01-02T07:18:53.432Z,4.95
2023-01-02T07:21:22.181Z,5.03
2023-01-02T07:23:50.091Z,5.15
2023-01-02T07:26:18.547Z,5.23
2023-01-02T07:28:47.304Z,5.33
2023-01-02T07:31:19.030Z,5.42
2023-01-02T07:33:47.176Z,5.52
2023-01-02T07:36:18.372Z,5.58
2023-01-02T07:38:52.358Z,5.64
2023-01-02T07:41:24.008Z,5.69
2023-01-02T07:43:57.562Z,5.75
2023-01-02T07:46:26.009Z,5.83
2023-01-02T07:48:53.690Z,5.93
2023-01-02T07:51:26.949Z,6.12
2023-01-02T07:53:57.124Z,6.31
2023-01-02T07:56:26.393Z,6.49
2023-01-02T07:58:54.356Z,6.65
2023-01-02T08:01:22.578Z,6.73
2023-01-02T08:03:51.193Z,6.82
2023-01-02T08:06:19.873Z,6.94
2023-01-02T08:08:48.485Z,7.03
2023-01-02T08:11:20.769Z,7.10
2023-01-02T08:13:49.963Z,7.16
2023-01-02T08:16:21.040Z,7.27
2023-01-02T08:18:51.639Z,7.40
2023-01-02T08:21:19.429Z,7.54
2023-01-02T08:23:47.418Z,7.65
2023-01-02T08:26:15.580Z,7.77
2023-01-02T08:28:43.647Z,7.87
2023-01-02T08:31:17.909Z,7.96
2023-01-02T08:33:55.497Z,8.06
2023-01-02T08:36:24.141Z,8.16
2023-01-02T08:38:54.311Z,8.16
2023-01-02T08:41:40.300Z,8.25
2023-01-02T08:44:08.579Z,8.35
2023-01-02T08:46:42.284Z,8.46
2023-01-02T08:49:09.143Z,8.53
2023-01-02T08:51:37.149Z,8.61
2023-01-02T08:54:05.468Z,8.75
2023-01-02T08:56:35.037Z,8.89
2023-01-02T08:59:09.608Z,9.00
2023-01-02T09:01:41.475Z,9.15
2023-01-02T09:04:12.917Z,9.27
2023-01-02T09:06:52.547Z,9.36
2023-01-02T09:09:23.457Z,9.46
2023-01-02T09:47:21.526Z,11.22
2023-01-02T09:50:03.061Z,11.25
2023-01-02T09:52:38.552Z,11.28
2023-01-02T09:55:19.169Z,11.40
2023-01-02T09:57:55.650Z,11.47
2023-01-02T10:00:30.233Z,11.60
2023-01-02T10:03:15.283Z,11.72
2023-01-02T10:06:11.570Z,11.82
2023-01-02T10:09:24.585Z,11.90
2023-01-02T10:12:00.821Z,11.99
2023-01-02T10:14:56.234Z,12.10
2023-01-02T10:17:27.751Z,12.16
2023-01-02T10:20:25.732Z,12.22
2023-01-02T10:22:57.997Z,12.32
2023-01-02T10:25:39.593Z,12.40
2023-01-02T10:28:32.646Z,12.45
2023-01-02T10:31:07.642Z,12.55
2023-01-02T10:33:44.016Z,12.68
2023-01-02T10:36:28.928Z,12.76
2023-01-02T10:39:21.664Z,12.85
2023-01-02T10:41:54.262Z,12.96
2023-01-02T10:44:30.104Z,13.08
2023-01-02T10:46:59.582Z,13.22
2023-01-02T10:49:27.394Z,13.34
2023-01-02T10:52:22.349Z,13.47
2023-01-02T10:54:59.882Z,13.54
2023-01-02T10:57:44.620Z,13.65
2023-01-02T11:00:28.260Z,13.74
2023-01-02T11:03:02.016Z,13.82
2023-01-02T11:05:31.363Z,13.91
2023-01-02T11:07:59.873Z,13.97
2023-01-02T11:10:34.462Z,13.98
2023-01-02T11:13:11.832Z,13.98
2023-01-02T11:16:00.161Z,13.99
2023-01-02T11:18:32.262Z,14.01
2023-01-02T11:21:04.216Z,14.02
2023-01-02T11:23:42.790Z,14.05
2023-01-02T11:26:16.063Z,14.08
2023-01-02T11:28:43.941Z,14.13
2023-01-02T11:31:14.794Z,14.19
2023-01-02T11:33:44.047Z,14.23
2023-01-02T11:36:17.124Z,14.25
2023-01-02T11:38:51.412Z,14.26
2023-01-02T11:41:59.364Z,14.26
2023-01-02T11:44:49.243Z,14.32
2023-01-02T11:47:22.442Z,14.38
2023-01-02T11:49:50.967Z,14.42
2023-01-02T11:52:24.199Z,14.44
2023-01-02T11:55:18.474Z,14.49
2023-01-02T11:58:01.429Z,14.52
2023-01-02T12:00:32.690Z,14.58
2023-01-02T12:03:18.323Z,14.61
2023-01-02T12:06:06.786Z,14.62
2023-01-02T12:08:57.473Z,14.62
2023-01-02T12:11:45.751Z,14.63
2023-01-02T12:14:23.827Z,14.66
2023-01-02T12:17:17.799Z,14.66
2023-01-02T12:20:25.868Z,14.69
2023-01-02T12:23:15.997Z,14.72
2023-01-02T12:25:49.454Z,14.61
2023-01-02T12:28:57.073Z,14.67
2023-01-02T12:32:01.204Z,14.61
2023-01-02T12:34:50.309Z,14.53
2023-01-02T12:37:48.423Z,14.46
2023-01-02T12:40:50.135Z,14.42
2023-01-02T12:43:36.275Z,14.39
2023-01-02T12:46:48.838Z,14.35
2023-01-02T12:49:40.574Z,14.29
2023-01-02T12:52:20.285Z,14.23
2023-01-02T12:55:02.691Z,14.15
2023-01-02T12:57:56.500Z,14.10
2023-01-02T13:00:55.902Z,14.06
2023-01-02T13:03:44.588Z,13.99
2023-01-02T13:06:50.317Z,13.88
2023-01-02T13:09:37.909Z,13.78
2023-01-02T13:12:29.083Z,13.70
2023-01-02T13:15:13.582Z,13.64
2023-01-02T13:18:10.956Z,13.56
2023-01-02T13:21:10.045Z,13.49
2023-01-02T13:23:43.657Z,13.42
2023-01-02T13:26:22.529Z,13.34
2023-01-02T13:29:06.270Z,13.28
2023-01-02T13:31:47.508Z,13.20
2023-01-02T13:34:27.983Z,13.13
2023-01-02T13:37:13.001Z,13.04
2023-01-02T13:39:45.602Z,12.99
2023-01-02T13:42:48.944Z,12.93
2023-01-02T13:45:24.042Z,12.85
2023-01-02T13:48:03.324Z,12.80
2023-01-02T13:50:34.817Z,12.76
2023-01-02T13:53:25.952Z,12.72
2023-01-02T13:56:11.429Z,12.66
2023-01-02T13:58:47.475Z,12.58
2023-01-02T14:01:26.460Z,12.51
2023-01-02T14:04:19.166Z,12.41
2023-01-02T14:06:53.678Z,12.31
2023-01-02T14:09:20.787Z,12.17
2023-01-02T14:11:58.637Z,12.07
2023-01-02T14:14:48.124Z,11.97
2023-01-02T14:17:33.422Z,11.86
2023-01-02T14:20:36.455Z,11.74
2023-01-02T14:23:08.292Z,11.62
2023-01-02T14:25:46.423Z,11.51
2023-01-02T14:28:29.010Z,11.43
2023-01-02T14:30:58.023Z,11.35
2023-01-02T14:33:35.586Z,11.23
2023-01-02T14:36:14.539Z,11.14
2023-01-02T14:38:56.843Z,11.05
2023-01-02T14:42:11.903Z,10.95
2023-01-02T14:44:59.795Z,10.86
2023-01-02T14:47:40.908Z,10.73
2023-01-02T14:50:23.084Z,10.61
2023-01-02T14:53:29.895Z,10.53
2023-01-02T14:56:00.985Z,10.41
2023-01-02T14:58:45.133Z,10.26
2023-01-02T15:01:42.848Z,10.16
2023-01-02T15:04:27.647Z,10.07
2023-01-02T15:07:19.086Z,9.95
2023-01-02T15:09:58.366Z,9.82
2023-01-02T15:12:49.097Z,9.68
2023-01-02T15:15:22.022Z,9.56
2023-01-02T15:17:54.664Z,9.47
2023-01-02T15:20:26.783Z,9.36
2023-01-02T17:02:26.774Z,5.57
2023-01-02T17:04:54.612Z,5.47
2023-01-02T17:07:22.795Z,5.41
2023-01-02T17:09:50.992Z,5.36
2023-01-02T17:12:19.067Z,5.33
2023-01-02T17:14:47.039Z,5.28
2023-01-02T17:17:14.723Z,5.27
2023-01-02T17:19:42.617Z,5.23
2023-01-02T17:22:10.603Z,5.20
2023-01-02T17:24:38.889Z,5.18
2023-01-02T17:27:06.745Z,5.16
2023-01-02T17:29:34.652Z,5.13
2023-01-02T17:32:02.758Z,5.08
2023-01-02T17:34:32.117Z,5.04
2023-01-02T17:36:59.981Z,5.01
2023-01-02T17:39:27.869Z,4.98
2023-01-02T17:41:55.719Z,4.96
2023-01-02T17:44:23.588Z,4.93
2023-01-02T17:47:23.362Z,4.89
2023-01-02T17:49:22.835Z,4.86
2023-01-02T17:51:53.175Z,4.83
2023-01-02T17:54:21.916Z,4.79
2023-01-02T17:56:51.632Z,4.76
2023-01-02T17:59:19.693Z,4.73
2023-01-02T18:01:48.851Z,4.71
2023-01-02T18:04:17.930Z,4.70
2023-01-02T18:06:46.195Z,4.67
2023-01-02T18:09:24.114Z,4.66
2023-01-02T18:11:52.338Z,4.62
2023-01-02T18:14:27.907Z,4.59
2023-01-02T18:16:56.907Z,4.55
2023-01-02T18:19:29.571Z,4.52
2023-01-02T18:21:57.448Z,4.49
2023-01-02T18:24:31.743Z,4.47
2023-01-02T18:27:20.150Z,4.44
2023-01-02T18:30:12.058Z,4.40
2023-01-02T18:32:49.824Z,4.37
2023-01-02T18:38:23.907Z,4.26
2023-01-02T18:40:52.885Z,4.21
2023-01-02T18:43:37.450Z,4.14
2023-01-02T18:46:18.518Z,4.09
2023-01-02T18:48:47.328Z,4.05
2023-01-02T18:51:22.863Z,4.02
2023-01-02T18:53:53.482Z,3.97
2023-01-02T18:56:31.043Z,3.96
2023-01-02T18:59:25.443Z,3.93
2023-01-02T19:01:55.247Z,3.92
2023-01-02T19:04:28.877Z,3.89
2023-01-02T19:07:01.546Z,3.85
2023-01-02T19:09:38.399Z,3.81
2023-01-02T19:12:36.419Z,3.80
2023-01-02T19:15:46.338Z,3.78
2023-01-02T19:18:26.987Z,3.75
2023-01-02T19:21:11.738Z,3.72
2023-01-02T19:24:05.866Z,3.55
2023-01-02T19:26:45.521Z,3.66
2023-01-02T19:29:27.761Z,3.63
2023-01-02T19:36:42.966Z,3.56
2023-01-02T19:39:47.824Z,3.49
2023-01-02T19:46:56.939Z,3.42
2023-01-02T19:49:32.948Z,3.35
2023-01-02T19:52:01.781Z,3.32
2023-01-02T19:55:10.300Z,3.32
2023-01-02T20:00:58.447Z,3.27
2023-01-02T20:03:48.994Z,3.23
2023-01-02T20:06:18.767Z,3.20
2023-01-02T20:08:47.233Z,3.16
2023-01-02T20:11:33.610Z,3.11
2023-01-02T20:14:01.946Z,3.06
2023-01-02T20:16:30.476Z,3.01
2023-01-02T20:18:58.509Z,2.99
2023-01-02T20:21:29.277Z,2.97
2023-01-02T20:23:57.740Z,2.96
2023-01-02T20:26:25.722Z,2.96
2023-01-02T20:28:53.948Z,2.94
2023-01-02T20:31:21.985Z,2.93
2023-01-02T20:33:50.162Z,2.88
2023-01-02T20:36:18.547Z,2.86
2023-01-02T20:38:46.790Z,2.84
2023-01-02T20:41:14.805Z,2.82
2023-01-02T20:43:43.146Z,2.80
2023-01-02T20:46:11.232Z,2.75
2023-01-02T20:48:39.452Z,2.73
2023-01-02T20:51:07.229Z,2.69
2023-01-02T20:53:36.271Z,2.68
2023-01-02T20:56:07.667Z,2.65
2023-01-02T20:58:35.396Z,2.62
2023-01-02T21:01:03.321Z,2.60
2023-01-02T21:03:33.905Z,2.59
2023-01-02T21:06:01.671Z,2.56
2023-01-02T21:08:29.879Z,2.55
2023-01-02T21:10:57.770Z,2.55
2023-01-02T21:13:25.923Z,2.53
2023-01-02T21:15:57.543Z,2.52
2023-01-02T21:18:29.991Z,2.51
2023-01-02T21:21:02.004Z,2.49
2023-01-02T21:23:30.825Z,2.50
2023-01-02T21:25:59.362Z,2.49
2023-01-02T21:28:27.493Z,2.49
2023-01-02T21:30:55.981Z,2.48
2023-01-02T21:33:28.719Z,2.47
2023-01-02T21:36:01.639Z,2.45
2023-01-02T21:38:30.151Z,2.45
2023-01-02T21:41:17.164Z,2.44
2023-01-02T21:43:45.928Z,2.40
2023-01-02T21:46:14.457Z,2.38
2023-01-02T21:48:42.468Z,2.38
2023-01-02T21:51:10.573Z,2.38
2023-01-02T21:53:38.640Z,2.37
2023-01-02T21:56:07.846Z,2.35
2023-01-02T21:58:36.070Z,2.33
2023-01-02T22:01:04.247Z,2.33
2023-01-02T22:03:32.326Z,2.33
2023-01-02T22:06:00.277Z,2.32
2023-01-02T22:08:28.224Z,2.30
2023-01-02T22:10:57.955Z,2.30
2023-01-02T22:13:25.824Z,2.29
2023-01-02T22:15:53.873Z,2.29
2023-01-02T22:18:21.653Z,2.27
2023-01-02T22:20:49.776Z,2.25
2023-01-02T22:23:17.814Z,2.24
2023-01-02T22:25:45.637Z,2.23
2023-01-02T22:28:13.633Z,2.21
2023-01-02T22:30:41.267Z,2.21
2023-01-02T22:33:11.685Z,2.21
2023-01-02T22:35:39.529Z,2.24
2023-01-02T22:38:07.275Z,2.25
2023-01-02T22:40:35.037Z,2.23
2023-01-02T22:43:04.769Z,2.25
2023-01-02T22:45:38.018Z,2.25
2023-01-02T22:48:12.283Z,2.26
2023-01-02T22:50:47.064Z,2.28
2023-01-02T22:53:33.196Z,2.28
2023-01-02T22:56:04.818Z,2.29
2023-01-02T22:58:32.674Z,2.30
2023-01-02T23:01:04.034Z,2.31
2023-01-02T23:03:41.984Z,2.30
2023-01-02T23:06:10.348Z,2.31
2023-01-02T23:08:40.420Z,2.31
2023-01-02T23:11:10.191Z,2.30
2023-01-02T23:13:39.222Z,2.31
2023-01-02T23:16:26.658Z,2.32
2023-01-02T23:19:14.302Z,2.32
2023-01-02T23:21:46.188Z,2.32
2023-01-02T23:24:19.109Z,2.31
2023-01-02T23:26:51.844Z,2.34
2023-01-02T23:29:21.542Z,2.32
2023-01-02T23:31:50.900Z,2.31
2023-01-02T23:34:23.425Z,2.29
2023-01-02T23:36:54.311Z,2.26
2023-01-02T23:39:27.185Z,2.24
2023-01-02T23:41:56.006Z,2.22
2023-01-02T23:44:25.670Z,2.22
2023-01-02T23:46:54.739Z,2.20
2023-01-02T23:49:23.135Z,2.15
2023-01-02T23:51:51.646Z,2.14
2023-01-02T23:54:20.595Z,2.09
2023-01-02T23:56:50.619Z,2.04
2023-01-02T23:59:22.669Z,1.99
